sensor_id;sensor_type;location;lat;lon;timestamp;pressure;altitude;pressure_sealevel;temperature;humidity
15444;BME280;7822;48.146;11.576;2023-07-16T00:00:17;94913.16;;;19.91;83.39
15444;BME280;7822;48.146;11.576;2023-07-16T00:02:46;94915.00;;;19.91;83.28
15444;BME280;7822;48.146;11.576;2023-07-16T00:05:14;94916.00;;;19.90;83.22
15444;BME280;7822;48.146;11.576;2023-07-16T00:07:42;94919.44;;;19.90;83.44
15444;BME280;7822;48.146;11.576;2023-07-16T00:10:10;94930.19;;;19.89;83.30
15444;BME280;7822;48.146;11.576;2023-07-16T00:12:38;94925.69;;;19.89;83.10
15444;BME280;7822;48.146;11.576;2023-07-16T00:15:06;94917.81;;;19.89;83.31
15444;BME280;7822;48.146;11.576;2023-07-16T00:17:35;94927.53;;;19.89;83.06
15444;BME280;7822;48.146;11.576;2023-07-16T00:20:02;94930.19;;;19.89;83.10
15444;BME280;7822;48.146;11.576;2023-07-16T00:22:30;94935.44;;;19.89;83.30
15444;BME280;7822;48.146;11.576;2023-07-16T00:24:58;94942.50;;;19.88;83.25
15444;BME280;7822;48.146;11.576;2023-07-16T00:27:26;94947.78;;;19.88;82.96
15444;BME280;7822;48.146;11.576;2023-07-16T00:29:53;94945.97;;;19.89;83.18
15444;BME280;7822;48.146;11.576;2023-07-16T00:32:21;94945.16;;;19.88;82.93
15444;BME280;7822;48.146;11.576;2023-07-16T00:34:50;94939.06;;;19.88;82.86
15444;BME280;7822;48.146;11.576;2023-07-16T00:37:17;94953.03;;;19.88;82.99
15444;BME280;7822;48.146;11.576;2023-07-16T00:39:45;94970.66;;;19.88;82.71
15444;BME280;7822;48.146;11.576;2023-07-16T00:42:12;94982.84;;;19.89;83.14
15444;BME280;7822;48.146;11.576;2023-07-16T00:44:40;94996.00;;;19.89;82.82
15444;BME280;7822;48.146;11.576;2023-07-16T00:47:07;95025.75;;;19.89;82.99
15444;BME280;7822;48.146;11.576;2023-07-16T00:49:36;95052.91;;;19.90;82.95
15444;BME280;7822;48.146;11.576;2023-07-16T00:52:05;95072.16;;;19.90;82.96
15444;BME280;7822;48.146;11.576;2023-07-16T00:54:34;95080.06;;;19.90;82.71
15444;BME280;7822;48.146;11.576;2023-07-16T00:57:02;95087.97;;;19.90;82.92
15444;BME280;7822;48.146;11.576;2023-07-16T00:59:30;95093.22;;;19.90;82.76
15444;BME280;7822;48.146;11.576;2023-07-16T01:01:57;95096.69;;;19.91;82.61
15444;BME280;7822;48.146;11.576;2023-07-16T01:04:25;95104.59;;;19.91;82.90
15444;BME280;7822;48.146;11.576;2023-07-16T01:06:53;95126.44;;;19.91;82.93
15444;BME280;7822;48.146;11.576;2023-07-16T01:09:24;95129.06;;;19.91;82.84
15444;BME280;7822;48.146;11.576;2023-07-16T01:11:51;95139.59;;;19.91;82.60
15444;BME280;7822;48.146;11.576;2023-07-16T01:14:20;95143.25;;;19.90;82.81
15444;BME280;7822;48.146;11.576;2023-07-16T01:16:48;95123.81;;;19.91;82.57
15444;BME280;7822;48.146;11.576;2023-07-16T01:19:17;95144.06;;;19.91;82.50
15444;BME280;7822;48.146;11.576;2023-07-16T01:21:47;95144.06;;;19.91;82.50
15444;BME280;7822;48.146;11.576;2023-07-16T01:24:25;95142.44;;;19.90;82.75
15444;BME280;7822;48.146;11.576;2023-07-16T01:27:08;95149.34;;;19.91;82.43
15444;BME280;7822;48.146;11.576;2023-07-16T01:29:39;95153.97;;;19.89;82.43
15444;BME280;7822;48.146;11.576;2023-07-16T01:32:09;95168.75;;;19.90;82.54
15444;BME280;7822;48.146;11.576;2023-07-16T01:34:38;95165.31;;;19.89;82.49
15444;BME280;7822;48.146;11.576;2023-07-16T01:37:06;95167.16;;;19.89;82.62
15444;BME280;7822;48.146;11.576;2023-07-16T01:39:34;95164.50;;;19.89;82.48
15444;BME280;7822;48.146;11.576;2023-07-16T01:42:02;95169.78;;;19.89;82.41
15444;BME280;7822;48.146;11.576;2023-07-16T01:44:30;95168.75;;;19.90;82.52
15444;BME280;7822;48.146;11.576;2023-07-16T01:47:03;95167.94;;;19.89;82.44
15444;BME280;7822;48.146;11.576;2023-07-16T01:49:31;95167.16;;;19.89;82.32
15444;BME280;7822;48.146;11.576;2023-07-16T01:51:59;95166.13;;;19.90;82.44
15444;BME280;7822;48.146;11.576;2023-07-16T01:54:27;95167.31;;;19.87;82.54
15444;BME280;7822;48.146;11.576;2023-07-16T01:56:54;95176.03;;;19.88;82.38
15444;BME280;7822;48.146;11.576;2023-07-16T01:59:22;95182.13;;;19.88;82.62
15444;BME280;7822;48.146;11.576;2023-07-16T02:01:49;95180.31;;;19.89;82.43
15444;BME280;7822;48.146;11.576;2023-07-16T02:04:19;95172.56;;;19.87;82.12
15444;BME280;7822;48.146;11.576;2023-07-16T02:06:47;95179.47;;;19.88;82.19
15444;BME280;7822;48.146;11.576;2023-07-16T02:09:15;95169.94;;;19.87;82.18
15444;BME280;7822;48.146;11.576;2023-07-16T02:11:42;95184.75;;;19.88;82.23
15444;BME280;7822;48.146;11.576;2023-07-16T02:14:10;95190.00;;;19.88;82.48
15444;BME280;7822;48.146;11.576;2023-07-16T02:16:37;95202.16;;;19.89;82.24
15444;BME280;7822;48.146;11.576;2023-07-16T02:19:05;95203.19;;;19.88;82.27
15444;BME280;7822;48.146;11.576;2023-07-16T02:21:34;95199.72;;;19.88;82.43
15444;BME280;7822;48.146;11.576;2023-07-16T02:24:01;95189.19;;;19.88;82.19
15444;BME280;7822;48.146;11.576;2023-07-16T02:26:29;95187.38;;;19.88;82.33
15444;BME280;7822;48.146;11.576;2023-07-16T02:28:57;95181.28;;;19.88;82.21
15444;BME280;7822;48.146;11.576;2023-07-16T02:31:25;95182.13;;;19.88;82.32
15444;BME280;7822;48.146;11.576;2023-07-16T02:33:53;95187.38;;;19.88;82.18
15444;BME280;7822;48.146;11.576;2023-07-16T02:36:20;95183.72;;;19.89;82.37
15444;BME280;7822;48.146;11.576;2023-07-16T02:38:49;95186.38;;;19.89;82.13
15444;BME280;7822;48.146;11.576;2023-07-16T02:41:16;95189.00;;;19.89;82.02
15444;BME280;7822;48.146;11.576;2023-07-16T02:43:45;95204.81;;;19.89;82.08
15444;BME280;7822;48.146;11.576;2023-07-16T02:46:12;95204.81;;;19.89;82.04
15444;BME280;7822;48.146;11.576;2023-07-16T02:48:40;95202.16;;;19.89;82.07
15444;BME280;7822;48.146;11.576;2023-07-16T02:51:08;95203.00;;;19.90;82.11
15444;BME280;7822;48.146;11.576;2023-07-16T02:53:36;95208.25;;;19.90;82.08
15444;BME280;7822;48.146;11.576;2023-07-16T02:56:05;95210.88;;;19.90;82.11
15444;BME280;7822;48.146;11.576;2023-07-16T02:58:32;95214.53;;;19.89;81.97
15444;BME280;7822;48.146;11.576;2023-07-16T03:01:00;95209.28;;;19.89;82.09
15444;BME280;7822;48.146;11.576;2023-07-16T03:03:27;95211.06;;;19.88;82.29
15444;BME280;7822;48.146;11.576;2023-07-16T03:06:01;95216.34;;;19.88;81.95
15444;BME280;7822;48.146;11.576;2023-07-16T03:08:29;95215.34;;;19.89;82.06
15444;BME280;7822;48.146;11.576;2023-07-16T03:10:57;95211.91;;;19.89;82.27
15444;BME280;7822;48.146;11.576;2023-07-16T03:13:26;95205.81;;;19.88;82.16
15444;BME280;7822;48.146;11.576;2023-07-16T03:15:54;95214.53;;;19.89;82.11
15444;BME280;7822;48.146;11.576;2023-07-16T03:18:21;95206.63;;;19.89;82.30
15444;BME280;7822;48.146;11.576;2023-07-16T03:20:49;95206.78;;;19.87;82.25
15444;BME280;7822;48.146;11.576;2023-07-16T03:23:16;95218.97;;;19.88;81.97
15444;BME280;7822;48.146;11.576;2023-07-16T03:25:44;95225.22;;;19.87;82.27
15444;BME280;7822;48.146;11.576;2023-07-16T03:28:12;95231.31;;;19.88;81.91
15444;BME280;7822;48.146;11.576;2023-07-16T03:30:44;95240.03;;;19.88;82.05
15444;BME280;7822;48.146;11.576;2023-07-16T03:33:12;95240.88;;;19.89;82.21
15444;BME280;7822;48.146;11.576;2023-07-16T03:35:41;95257.66;;;19.88;82.14
15444;BME280;7822;48.146;11.576;2023-07-16T03:38:09;95255.84;;;19.88;82.06
15444;BME280;7822;48.146;11.576;2023-07-16T03:40:37;95258.47;;;19.88;81.99
15444;BME280;7822;48.146;11.576;2023-07-16T03:43:04;95262.09;;;19.87;82.10
15444;BME280;7822;48.146;11.576;2023-07-16T03:45:32;95265.53;;;19.88;82.12
15444;BME280;7822;48.146;11.576;2023-07-16T03:48:01;95267.34;;;19.87;82.16
15444;BME280;7822;48.146;11.576;2023-07-16T03:50:29;95263.94;;;19.87;81.96
15444;BME280;7822;48.146;11.576;2023-07-16T03:52:56;95260.28;;;19.88;82.00
15444;BME280;7822;48.146;11.576;2023-07-16T03:55:24;95254.19;;;19.87;81.89
15444;BME280;7822;48.146;11.576;2023-07-16T03:57:51;95261.28;;;19.87;81.94
15444;BME280;7822;48.146;11.576;2023-07-16T04:00:19;95268.19;;;19.88;81.92
15444;BME280;7822;48.146;11.576;2023-07-16T04:02:47;95268.00;;;19.89;81.98
15444;BME280;7822;48.146;11.576;2023-07-16T04:05:16;95284.81;;;19.88;81.97
15444;BME280;7822;48.146;11.576;2023-07-16T04:07:46;95283.00;;;19.89;82.03
15444;BME280;7822;48.146;11.576;2023-07-16T04:10:13;95285.63;;;19.89;81.89
15444;BME280;7822;48.146;11.576;2023-07-16T04:12:41;95304.06;;;19.89;81.82
15444;BME280;7822;48.146;11.576;2023-07-16T04:15:08;95291.69;;;19.89;82.09
15444;BME280;7822;48.146;11.576;2023-07-16T04:17:37;95300.41;;;19.90;81.91
15444;BME280;7822;48.146;11.576;2023-07-16T04:20:05;95306.50;;;19.90;81.79
15444;BME280;7822;48.146;11.576;2023-07-16T04:22:34;95313.59;;;19.90;81.98
15444;BME280;7822;48.146;11.576;2023-07-16T04:25:02;95321.28;;;19.91;81.88
15444;BME280;7822;48.146;11.576;2023-07-16T04:27:30;95317.88;;;19.91;82.15
15444;BME280;7822;48.146;11.576;2023-07-16T04:29:58;95314.41;;;19.90;81.84
15444;BME280;7822;48.146;11.576;2023-07-16T04:32:25;95317.03;;;19.90;81.94
15444;BME280;7822;48.146;11.576;2023-07-16T04:34:53;95323.13;;;19.91;81.91
15444;BME280;7822;48.146;11.576;2023-07-16T04:37:20;95320.50;;;19.91;81.90
15444;BME280;7822;48.146;11.576;2023-07-16T04:39:49;95323.28;;;19.89;82.00
15444;BME280;7822;48.146;11.576;2023-07-16T04:42:17;95327.56;;;19.90;82.09
15444;BME280;7822;48.146;11.576;2023-07-16T04:44:44;95326.75;;;19.90;81.89
15444;BME280;7822;48.146;11.576;2023-07-16T04:47:12;95332.00;;;19.90;81.81
15444;BME280;7822;48.146;11.576;2023-07-16T04:49:39;95333.03;;;19.89;81.80
15444;BME280;7822;48.146;11.576;2023-07-16T04:52:07;95332.00;;;19.90;82.04
15444;BME280;7822;48.146;11.576;2023-07-16T04:54:35;95331.19;;;19.89;81.71
15444;BME280;7822;48.146;11.576;2023-07-16T04:57:05;95335.66;;;19.89;82.00
15444;BME280;7822;48.146;11.576;2023-07-16T04:59:33;95329.56;;;19.88;81.86
15444;BME280;7822;48.146;11.576;2023-07-16T05:02:01;95312.75;;;19.89;81.89
15444;BME280;7822;48.146;11.576;2023-07-16T05:04:29;95309.31;;;19.89;82.00
15444;BME280;7822;48.146;11.576;2023-07-16T05:06:57;95309.31;;;19.89;81.82
15444;BME280;7822;48.146;11.576;2023-07-16T05:09:25;95317.22;;;19.89;81.84
15444;BME280;7822;48.146;11.576;2023-07-16T05:11:52;95319.84;;;19.89;81.96
15444;BME280;7822;48.146;11.576;2023-07-16T05:14:21;95325.91;;;19.89;81.77
15444;BME280;7822;48.146;11.576;2023-07-16T05:16:49;95323.47;;;19.88;81.81
15444;BME280;7822;48.146;11.576;2023-07-16T05:19:16;95327.75;;;19.89;81.62
15444;BME280;7822;48.146;11.576;2023-07-16T05:21:44;95333.03;;;19.89;81.75
15444;BME280;7822;48.146;11.576;2023-07-16T05:24:11;95331.19;;;19.89;81.92
15444;BME280;7822;48.146;11.576;2023-07-16T05:26:39;95325.91;;;19.89;81.70
15444;BME280;7822;48.146;11.576;2023-07-16T05:29:06;95325.91;;;19.89;81.89
15444;BME280;7822;48.146;11.576;2023-07-16T05:31:35;95334.66;;;19.90;81.73
15444;BME280;7822;48.146;11.576;2023-07-16T05:34:03;95325.91;;;19.89;81.75
15444;BME280;7822;48.146;11.576;2023-07-16T05:36:30;95333.81;;;19.89;81.99
15444;BME280;7822;48.146;11.576;2023-07-16T05:38:58;95340.75;;;19.90;81.72
15444;BME280;7822;48.146;11.576;2023-07-16T05:41:25;95339.91;;;19.90;81.80
15444;BME280;7822;48.146;11.576;2023-07-16T05:43:53;95337.28;;;19.90;82.04
15444;BME280;7822;48.146;11.576;2023-07-16T05:46:20;95345.00;;;19.91;81.81
15444;BME280;7822;48.146;11.576;2023-07-16T05:48:49;95357.38;;;19.91;81.71
15444;BME280;7822;48.146;11.576;2023-07-16T05:51:17;95359.16;;;19.90;81.70
15444;BME280;7822;48.146;11.576;2023-07-16T05:53:45;95360.97;;;19.90;82.06
15444;BME280;7822;48.146;11.576;2023-07-16T05:56:12;95368.69;;;19.91;81.78
15444;BME280;7822;48.146;11.576;2023-07-16T05:58:40;95361.81;;;19.90;82.09
15444;BME280;7822;48.146;11.576;2023-07-16T06:01:08;95363.44;;;19.91;81.98
15444;BME280;7822;48.146;11.576;2023-07-16T06:03:35;95361.81;;;19.90;82.01
15444;BME280;7822;48.146;11.576;2023-07-16T06:06:04;95365.25;;;19.91;81.87
15444;BME280;7822;48.146;11.576;2023-07-16T06:08:32;95371.31;;;19.91;81.67
15444;BME280;7822;48.146;11.576;2023-07-16T06:10:59;95357.38;;;19.91;82.01
15444;BME280;7822;48.146;11.576;2023-07-16T06:13:27;95374.97;;;19.90;81.84
15444;BME280;7822;48.146;11.576;2023-07-16T06:15:54;95376.78;;;19.90;82.11
15444;BME280;7822;48.146;11.576;2023-07-16T06:18:22;95377.59;;;19.90;81.89
15444;BME280;7822;48.146;11.576;2023-07-16T06:20:49;95382.88;;;19.90;81.78
15444;BME280;7822;48.146;11.576;2023-07-16T06:23:19;95387.13;;;19.91;81.79
15444;BME280;7822;48.146;11.576;2023-07-16T06:25:47;95392.56;;;19.90;81.72
15444;BME280;7822;48.146;11.576;2023-07-16T06:28:16;95396.03;;;19.90;81.95
15444;BME280;7822;48.146;11.576;2023-07-16T06:30:43;95389.75;;;19.91;81.98
15444;BME280;7822;48.146;11.576;2023-07-16T06:33:11;95392.56;;;19.90;81.63
15444;BME280;7822;48.146;11.576;2023-07-16T06:35:38;95397.84;;;19.90;81.97
15444;BME280;7822;48.146;11.576;2023-07-16T06:38:06;95386.47;;;19.89;81.58
15444;BME280;7822;48.146;11.576;2023-07-16T06:40:34;95390.78;;;19.90;81.73
15444;BME280;7822;48.146;11.576;2023-07-16T06:43:02;95387.31;;;19.90;81.77
15444;BME280;7822;48.146;11.576;2023-07-16T06:45:30;95388.13;;;19.90;81.94
15444;BME280;7822;48.146;11.576;2023-07-16T06:48:00;95383.84;;;19.89;81.75
15444;BME280;7822;48.146;11.576;2023-07-16T06:50:27;95391.75;;;19.89;81.72
15444;BME280;7822;48.146;11.576;2023-07-16T06:52:55;95392.56;;;19.90;81.71
15444;BME280;7822;48.146;11.576;2023-07-16T06:55:22;95411.00;;;19.90;82.00
15444;BME280;7822;48.146;11.576;2023-07-16T06:57:51;95400.47;;;19.90;81.91
15444;BME280;7822;48.146;11.576;2023-07-16T07:00:19;95400.47;;;19.90;81.82
15444;BME280;7822;48.146;11.576;2023-07-16T07:02:49;95400.47;;;19.90;81.97
15444;BME280;7822;48.146;11.576;2023-07-16T07:05:17;95402.28;;;19.89;81.70
15444;BME280;7822;48.146;11.576;2023-07-16T07:07:45;95405.75;;;19.90;81.95
15444;BME280;7822;48.146;11.576;2023-07-16T07:10:14;95405.75;;;19.90;81.71
15444;BME280;7822;48.146;11.576;2023-07-16T07:12:42;95398.66;;;19.90;81.63
15444;BME280;7822;48.146;11.576;2023-07-16T07:15:12;95399.66;;;19.89;81.72
15444;BME280;7822;48.146;11.576;2023-07-16T07:17:40;95404.13;;;19.89;81.80
15444;BME280;7822;48.146;11.576;2023-07-16T07:20:09;95398.66;;;19.90;81.85
15444;BME280;7822;48.146;11.576;2023-07-16T07:22:37;95398.66;;;19.90;81.80
15444;BME280;7822;48.146;11.576;2023-07-16T07:25:05;95389.94;;;19.90;81.74
15444;BME280;7822;48.146;11.576;2023-07-16T07:27:33;95400.47;;;19.90;81.94
15444;BME280;7822;48.146;11.576;2023-07-16T07:30:01;95403.09;;;19.90;81.92
15444;BME280;7822;48.146;11.576;2023-07-16T07:32:30;95397.84;;;19.90;81.79
15444;BME280;7822;48.146;11.576;2023-07-16T07:34:59;95396.88;;;19.91;82.07
15444;BME280;7822;48.146;11.576;2023-07-16T07:37:29;95394.38;;;19.89;81.70
15444;BME280;7822;48.146;11.576;2023-07-16T07:39:58;95397.66;;;19.91;81.88
15444;BME280;7822;48.146;11.576;2023-07-16T07:42:26;95396.88;;;19.91;81.71
15444;BME280;7822;48.146;11.576;2023-07-16T07:44:56;95397.66;;;19.91;81.84
15444;BME280;7822;48.146;11.576;2023-07-16T07:47:24;95400.28;;;19.91;81.91
15444;BME280;7822;48.146;11.576;2023-07-16T07:49:53;95397.66;;;19.91;81.89
15444;BME280;7822;48.146;11.576;2023-07-16T07:52:20;95396.69;;;19.92;81.99
15444;BME280;7822;48.146;11.576;2023-07-16T07:54:48;95394.03;;;19.92;82.01
15444;BME280;7822;48.146;11.576;2023-07-16T07:57:16;95393.06;;;19.93;81.98
15444;BME280;7822;48.146;11.576;2023-07-16T07:59:44;95381.72;;;19.93;81.93
15444;BME280;7822;48.146;11.576;2023-07-16T08:02:11;95390.44;;;19.93;81.98
15444;BME280;7822;48.146;11.576;2023-07-16T08:04:39;95389.41;;;19.94;81.85
15444;BME280;7822;48.146;11.576;2023-07-16T08:07:08;95376.44;;;19.93;81.82
15444;BME280;7822;48.146;11.576;2023-07-16T08:09:37;95379.91;;;19.93;81.82
15444;BME280;7822;48.146;11.576;2023-07-16T08:12:04;95373.81;;;19.93;81.91
15444;BME280;7822;48.146;11.576;2023-07-16T08:14:32;95375.44;;;19.94;81.96
15444;BME280;7822;48.146;11.576;2023-07-16T08:16:59;95370.97;;;19.94;81.66
15444;BME280;7822;48.146;11.576;2023-07-16T08:19:27;95366.72;;;19.93;81.84
15444;BME280;7822;48.146;11.576;2023-07-16T08:21:54;95366.72;;;19.93;81.79
15444;BME280;7822;48.146;11.576;2023-07-16T08:24:23;95363.91;;;19.95;81.68
15444;BME280;7822;48.146;11.576;2023-07-16T08:26:51;95361.47;;;19.93;82.01
15444;BME280;7822;48.146;11.576;2023-07-16T08:29:19;95364.09;;;19.93;81.67
15444;BME280;7822;48.146;11.576;2023-07-16T08:31:46;95369.38;;;19.93;82.08
15444;BME280;7822;48.146;11.576;2023-07-16T08:34:14;95372.00;;;19.93;81.92
15444;BME280;7822;48.146;11.576;2023-07-16T08:36:41;95369.38;;;19.93;81.82
15444;BME280;7822;48.146;11.576;2023-07-16T08:39:10;95364.09;;;19.93;81.64
15444;BME280;7822;48.146;11.576;2023-07-16T08:41:39;95358.84;;;19.93;81.98
15444;BME280;7822;48.146;11.576;2023-07-16T08:44:07;95362.09;;;19.95;81.75
15444;BME280;7822;48.146;11.576;2023-07-16T08:46:34;95362.25;;;19.94;81.97
15444;BME280;7822;48.146;11.576;2023-07-16T08:49:02;95357.81;;;19.94;81.73
15444;BME280;7822;48.146;11.576;2023-07-16T08:51:30;95361.28;;;19.95;81.86
15444;BME280;7822;48.146;11.576;2023-07-16T08:53:58;95357.81;;;19.94;81.95
15444;BME280;7822;48.146;11.576;2023-07-16T08:56:26;95361.28;;;19.95;81.87
15444;BME280;7822;48.146;11.576;2023-07-16T08:58:55;95350.75;;;19.95;81.71
15444;BME280;7822;48.146;11.576;2023-07-16T09:01:23;95356.00;;;19.95;81.83
15444;BME280;7822;48.146;11.576;2023-07-16T09:03:50;95357.63;;;19.96;81.76
15444;BME280;7822;48.146;11.576;2023-07-16T09:06:18;95348.09;;;19.95;82.01
15444;BME280;7822;48.146;11.576;2023-07-16T09:08:46;95348.94;;;19.95;81.76
15444;BME280;7822;48.146;11.576;2023-07-16T09:11:13;95333.13;;;19.95;81.90
15444;BME280;7822;48.146;11.576;2023-07-16T09:13:45;95335.78;;;19.95;81.43
15444;BME280;7822;48.146;11.576;2023-07-16T09:16:14;95345.28;;;19.96;82.03
15444;BME280;7822;48.146;11.576;2023-07-16T09:18:43;95347.09;;;19.96;81.77
15444;BME280;7822;48.146;11.576;2023-07-16T09:21:11;95345.47;;;19.95;81.96
15444;BME280;7822;48.146;11.576;2023-07-16T09:23:39;95339.19;;;19.96;82.04
15444;BME280;7822;48.146;11.576;2023-07-16T09:26:07;95333.13;;;19.95;82.01
15444;BME280;7822;48.146;11.576;2023-07-16T09:28:35;95341.03;;;19.95;82.04
15444;BME280;7822;48.146;11.576;2023-07-16T09:31:03;95344.66;;;19.94;81.82
15444;BME280;7822;48.146;11.576;2023-07-16T09:33:32;95330.66;;;19.94;81.83
15444;BME280;7822;48.146;11.576;2023-07-16T09:36:00;95328.84;;;19.94;81.77
15444;BME280;7822;48.146;11.576;2023-07-16T09:38:29;95320.13;;;19.94;81.86
15444;BME280;7822;48.146;11.576;2023-07-16T09:40:57;95325.38;;;19.94;81.75
15444;BME280;7822;48.146;11.576;2023-07-16T09:43:25;95323.59;;;19.94;81.96
15444;BME280;7822;48.146;11.576;2023-07-16T09:45:53;95324.41;;;19.95;81.81
15444;BME280;7822;48.146;11.576;2023-07-16T09:48:20;95325.38;;;19.94;81.88
15444;BME280;7822;48.146;11.576;2023-07-16T09:50:51;95315.88;;;19.93;81.90
15444;BME280;7822;48.146;11.576;2023-07-16T09:53:20;95314.84;;;19.94;82.02
15444;BME280;7822;48.146;11.576;2023-07-16T09:55:50;95315.88;;;19.93;81.97
15444;BME280;7822;48.146;11.576;2023-07-16T09:58:19;95316.69;;;19.93;82.01
15444;BME280;7822;48.146;11.576;2023-07-16T10:00:49;95324.59;;;19.93;81.79
15444;BME280;7822;48.146;11.576;2023-07-16T10:03:17;95315.88;;;19.93;81.87
15444;BME280;7822;48.146;11.576;2023-07-16T10:05:45;95313.25;;;19.93;81.90
15444;BME280;7822;48.146;11.576;2023-07-16T10:08:17;95313.25;;;19.93;82.00
15444;BME280;7822;48.146;11.576;2023-07-16T10:10:45;95308.78;;;19.93;81.78
15444;BME280;7822;48.146;11.576;2023-07-16T10:13:15;95307.97;;;19.93;81.79
15444;BME280;7822;48.146;11.576;2023-07-16T10:15:52;95310.59;;;19.93;81.84
15444;BME280;7822;48.146;11.576;2023-07-16T10:18:24;95307.78;;;19.94;81.82
15444;BME280;7822;48.146;11.576;2023-07-16T10:20:53;95306.16;;;19.93;81.61
15444;BME280;7822;48.146;11.576;2023-07-16T10:23:25;95301.69;;;19.94;81.82
15444;BME280;7822;48.146;11.576;2023-07-16T10:26:01;95311.25;;;19.95;81.71
15444;BME280;7822;48.146;11.576;2023-07-16T10:28:32;95308.59;;;19.95;81.95
15444;BME280;7822;48.146;11.576;2023-07-16T10:31:00;95304.97;;;19.96;81.96
15444;BME280;7822;48.146;11.576;2023-07-16T10:33:28;95294.63;;;19.94;82.05
15444;BME280;7822;48.146;11.576;2023-07-16T10:35:56;95301.53;;;19.95;81.75
15444;BME280;7822;48.146;11.576;2023-07-16T10:38:25;95291.00;;;19.95;81.75
15444;BME280;7822;48.146;11.576;2023-07-16T10:40:52;95299.69;;;19.96;81.72
15444;BME280;7822;48.146;11.576;2023-07-16T10:43:20;95305.78;;;19.96;81.76
15444;BME280;7822;48.146;11.576;2023-07-16T10:45:50;95295.25;;;19.96;82.01
15444;BME280;7822;48.146;11.576;2023-07-16T10:48:17;95305.97;;;19.95;81.79
15444;BME280;7822;48.146;11.576;2023-07-16T10:50:45;95299.69;;;19.96;81.87
15444;BME280;7822;48.146;11.576;2023-07-16T10:53:12;95298.72;;;19.97;81.78
15444;BME280;7822;48.146;11.576;2023-07-16T10:55:41;95298.91;;;19.95;81.77
15444;BME280;7822;48.146;11.576;2023-07-16T10:58:09;95299.69;;;19.96;81.94
15444;BME280;7822;48.146;11.576;2023-07-16T11:00:38;95293.63;;;19.95;81.99
15444;BME280;7822;48.146;11.576;2023-07-16T11:03:06;95297.88;;;19.96;81.99
15444;BME280;7822;48.146;11.576;2023-07-16T11:05:35;95306.81;;;19.95;81.68
15444;BME280;7822;48.146;11.576;2023-07-16T11:08:02;95298.91;;;19.95;81.88
15444;BME280;7822;48.146;11.576;2023-07-16T11:10:30;95292.81;;;19.95;81.76
15444;BME280;7822;48.146;11.576;2023-07-16T11:12:59;95297.06;;;19.96;81.76
15444;BME280;7822;48.146;11.576;2023-07-16T11:15:30;95289.34;;;19.94;81.97
15444;BME280;7822;48.146;11.576;2023-07-16T11:17:59;95287.72;;;19.93;81.98
15444;BME280;7822;48.146;11.576;2023-07-16T11:20:26;95287.53;;;19.95;81.98
15444;BME280;7822;48.146;11.576;2023-07-16T11:22:57;95284.91;;;19.95;81.92
15444;BME280;7822;48.146;11.576;2023-07-16T11:25:24;95277.19;;;19.93;81.97
15444;BME280;7822;48.146;11.576;2023-07-16T11:27:53;95278.81;;;19.94;81.89
15444;BME280;7822;48.146;11.576;2023-07-16T11:30:23;95275.34;;;19.94;81.91
15444;BME280;7822;48.146;11.576;2023-07-16T11:32:52;95280.63;;;19.94;82.02
15444;BME280;7822;48.146;11.576;2023-07-16T11:35:20;95273.56;;;19.94;81.79
15444;BME280;7822;48.146;11.576;2023-07-16T11:37:47;95283.25;;;19.94;82.06
15444;BME280;7822;48.146;11.576;2023-07-16T11:40:15;95277.19;;;19.93;81.79
15444;BME280;7822;48.146;11.576;2023-07-16T11:42:43;95274.56;;;19.93;81.75
15444;BME280;7822;48.146;11.576;2023-07-16T11:45:17;95264.03;;;19.93;81.77
15444;BME280;7822;48.146;11.576;2023-07-16T11:47:47;95258.75;;;19.93;81.98
15444;BME280;7822;48.146;11.576;2023-07-16T11:50:14;95257.75;;;19.94;81.96
15444;BME280;7822;48.146;11.576;2023-07-16T11:52:42;95259.56;;;19.94;81.85
15444;BME280;7822;48.146;11.576;2023-07-16T11:55:10;95257.75;;;19.94;81.77
15444;BME280;7822;48.146;11.576;2023-07-16T11:57:37;95250.88;;;19.93;81.75
15444;BME280;7822;48.146;11.576;2023-07-16T12:00:05;95258.56;;;19.95;81.76
15444;BME280;7822;48.146;11.576;2023-07-16T12:02:33;95256.78;;;19.95;81.69
15444;BME280;7822;48.146;11.576;2023-07-16T12:05:02;95251.50;;;19.95;81.71
15444;BME280;7822;48.146;11.576;2023-07-16T12:07:30;95253.31;;;19.95;81.91
15444;BME280;7822;48.146;11.576;2023-07-16T12:09:58;95250.69;;;19.95;81.71
15444;BME280;7822;48.146;11.576;2023-07-16T12:12:26;95250.69;;;19.95;81.79
15444;BME280;7822;48.146;11.576;2023-07-16T12:14:53;95238.34;;;19.95;81.76
15444;BME280;7822;48.146;11.576;2023-07-16T12:17:21;95237.50;;;19.95;81.64
15444;BME280;7822;48.146;11.576;2023-07-16T12:19:49;95234.88;;;19.95;81.76
15444;BME280;7822;48.146;11.576;2023-07-16T12:22:18;95234.88;;;19.95;81.75
15444;BME280;7822;48.146;11.576;2023-07-16T12:24:47;95232.25;;;19.95;81.73
15444;BME280;7822;48.146;11.576;2023-07-16T12:27:14;95232.06;;;19.96;81.86
15444;BME280;7822;48.146;11.576;2023-07-16T12:29:42;95239.31;;;19.94;81.80
15444;BME280;7822;48.146;11.576;2023-07-16T12:32:10;95236.50;;;19.96;81.84
15444;BME280;7822;48.146;11.576;2023-07-16T12:34:37;95240.97;;;19.95;81.63
15444;BME280;7822;48.146;11.576;2023-07-16T12:37:05;95242.78;;;19.95;81.94
15444;BME280;7822;48.146;11.576;2023-07-16T12:39:36;95235.69;;;19.95;81.98
15444;BME280;7822;48.146;11.576;2023-07-16T12:42:05;95234.88;;;19.95;81.66
15444;BME280;7822;48.146;11.576;2023-07-16T12:44:32;95240.13;;;19.95;81.81
15444;BME280;7822;48.146;11.576;2023-07-16T12:47:00;95238.34;;;19.95;81.73
15444;BME280;7822;48.146;11.576;2023-07-16T12:49:27;95240.13;;;19.95;81.75
15444;BME280;7822;48.146;11.576;2023-07-16T12:51:55;95246.22;;;19.95;81.68
15444;BME280;7822;48.146;11.576;2023-07-16T12:54:22;95240.97;;;19.95;81.65
15444;BME280;7822;48.146;11.576;2023-07-16T12:56:52;95249.84;;;19.94;81.54
15444;BME280;7822;48.146;11.576;2023-07-16T12:59:19;95241.75;;;19.96;81.71
15444;BME280;7822;48.146;11.576;2023-07-16T13:01:47;95238.50;;;19.94;81.90
15444;BME280;7822;48.146;11.576;2023-07-16T13:04:14;95230.59;;;19.94;81.66